Time;durP1;ratioP1;P1;durP2;ratioP2;P2;SDS_P1;SDS_P2;PMS_P1;PMS_P2;Temp;Humidity;BMP_temperature;BMP_pressure;BME280_temperature;BME280_humidity;BME280_pressure;Samples;Min_cycle;Max_cycle;Signal;HPM_P1;HPM_P2
2023/05/08 00:01:22;;;;;;;24.23;21.92;;;;;;;;;;5028830;28;99799;-79
2023/05/08 00:03:50;;;;;;;25.50;22.70;;;;;;;;;;5025806;28;99303;-78
2023/05/08 00:06:17;;;;;;;23.60;21.20;;;;;;;;;;5024741;28;100205;-79
2023/05/08 00:08:43;;;;;;;24.05;21.50;;;;;;;;;;5024651;28;99180;-78
2023/05/08 00:11:09;;;;;;;25.27;21.35;;;;;;;;;;5024888;28;99535;-79
2023/05/08 00:13:36;;;;;;;23.17;20.83;;;;;;;;;;5023991;28;99589;-78
2023/05/08 00:16:02;;;;;;;22.02;20.02;;;;;;;;;;5025101;28;100084;-77
2023/05/08 00:18:29;;;;;;;24.15;21.55;;;;;;;;;;5024489;28;99601;-77
2023/05/08 00:20:55;;;;;;;25.77;20.27;;;;;;;;;;5024572;28;98773;-78
2023/05/08 00:23:22;;;;;;;22.02;19.67;;;;;;;;;;5019213;28;99179;-78
2023/05/08 00:25:48;;;;;;;23.27;21.15;;;;;;;;;;5004578;28;100312;-78
2023/05/08 00:28:15;;;;;;;28.20;22.80;;;;;;;;;;5005460;28;99060;-79
2023/05/08 00:30:41;;;;;;;28.08;22.45;;;;;;;;;;5005577;28;99317;-79
2023/05/08 00:33:08;;;;;;;24.10;21.95;;;;;;;;;;5005270;28;98916;-78
2023/05/08 00:35:35;;;;;;;27.25;24.52;;;;;;;;;;5003691;28;98622;-78
2023/05/08 00:38:01;;;;;;;27.85;22.73;;;;;;;;;;5005617;28;99383;-77
2023/05/08 00:40:28;;;;;;;32.67;22.70;;;;;;;;;;5002267;28;101537;-79
2023/05/08 00:42:54;;;;;;;28.90;22.48;;;;;;;;;;5006588;28;99905;-79
2023/05/08 00:45:20;;;;;;;27.20;24.38;;;;;;;;;;5006991;28;99499;-77
2023/05/08 00:47:47;;;;;;;26.20;23.42;;;;;;;;;;5004758;28;99015;-78
2023/05/08 00:50:14;;;;;;;25.58;22.45;;;;;;;;;;5007118;28;100482;-79
2023/05/08 00:52:41;;;;;;;26.95;24.13;;;;;;;;;;5007799;28;99790;-79
2023/05/08 00:55:08;;;;;;;26.05;21.15;;;;;;;;;;5007694;28;98989;-77
2023/05/08 00:57:35;;;;;;;23.67;21.23;;;;;;;;;;5017277;28;98342;-78
2023/05/08 01:00:03;;;;;;;25.45;21.23;;;;;;;;;;5028241;28;99281;-78
2023/05/08 01:02:30;;;;;;;28.13;23.40;;;;;;;;;;5009684;28;99883;-78
2023/05/08 01:04:57;;;;;;;46.38;26.55;;;;;;;;;;5026873;28;100918;-78
2023/05/08 01:07:23;;;;;;;268.20;27.10;;;;;;;;;;5031263;28;98529;-80
2023/05/08 01:09:49;;;;;;;201.38;26.50;;;;;;;;;;5028072;28;99626;-78
2023/05/08 01:12:22;;;;;;;219.63;29.60;;;;;;;;;;5009724;28;101535;-77
2023/05/08 01:15:05;;;;;;;281.40;31.75;;;;;;;;;;5022933;28;100640;-78
2023/05/08 01:17:53;;;;;;;205.50;27.17;;;;;;;;;;5010017;28;100420;-78
2023/05/08 01:20:20;;;;;;;248.98;26.88;;;;;;;;;;5006737;28;101766;-79
2023/05/08 01:22:58;;;;;;;240.60;26.75;;;;;;;;;;5006514;28;99284;-80
2023/05/08 01:25:43;;;;;;;368.55;28.25;;;;;;;;;;5019973;28;99050;-78
2023/05/08 01:28:28;;;;;;;264.27;23.58;;;;;;;;;;5029705;28;98880;-79
2023/05/08 01:30:58;;;;;;;331.15;25.90;;;;;;;;;;5023245;28;99843;-79
2023/05/08 01:33:45;;;;;;;251.13;23.40;;;;;;;;;;5007467;28;99154;-78
2023/05/08 01:36:19;;;;;;;266.15;25.60;;;;;;;;;;5006759;28;99212;-78
2023/05/08 01:38:51;;;;;;;302.50;27.98;;;;;;;;;;5006631;28;99271;-78
2023/05/08 01:41:24;;;;;;;504.50;40.13;;;;;;;;;;5017942;28;99409;-78
2023/05/08 01:43:54;;;;;;;143.13;22.65;;;;;;;;;;5027314;28;100000;-79
2023/05/08 01:46:25;;;;;;;112.80;22.55;;;;;;;;;;5009138;28;102553;-77
2023/05/08 01:48:59;;;;;;;98.72;23.83;;;;;;;;;;5006132;28;99930;-78
2023/05/08 01:51:27;;;;;;;24.02;21.88;;;;;;;;;;5011851;28;98911;-77
2023/05/08 01:54:03;;;;;;;23.80;21.27;;;;;;;;;;5008197;28;101689;-79
2023/05/08 01:56:31;;;;;;;23.52;21.30;;;;;;;;;;5027039;28;99711;-78
2023/05/08 01:58:58;;;;;;;26.33;21.42;;;;;;;;;;5008750;28;101617;-78
2023/05/08 02:01:27;;;;;;;22.63;20.75;;;;;;;;;;5026745;27;100442;-79
2023/05/08 02:03:56;;;;;;;23.30;20.85;;;;;;;;;;5027501;28;99640;-80
2023/05/08 02:06:23;;;;;;;34.45;24.13;;;;;;;;;;5007065;28;101518;-79
2023/05/08 02:08:50;;;;;;;31.38;22.05;;;;;;;;;;5027950;28;100042;-79
2023/05/08 02:11:17;;;;;;;24.05;21.55;;;;;;;;;;5026581;28;100201;-77
2023/05/08 02:13:45;;;;;;;25.08;22.08;;;;;;;;;;5030094;28;98469;-77
2023/05/08 02:16:13;;;;;;;24.80;22.27;;;;;;;;;;5005837;28;101084;-78
2023/05/08 02:18:42;;;;;;;52.40;22.88;;;;;;;;;;5005157;28;100109;-79
2023/05/08 02:21:10;;;;;;;26.25;23.55;;;;;;;;;;5005428;28;99824;-78
2023/05/08 02:23:37;;;;;;;263.95;32.80;;;;;;;;;;5006333;28;101048;-78
2023/05/08 02:26:03;;;;;;;74.13;28.45;;;;;;;;;;5005399;28;99130;-79
2023/05/08 02:28:31;;;;;;;139.00;27.38;;;;;;;;;;5007415;28;99118;-79
2023/05/08 02:30:59;;;;;;;51.30;22.95;;;;;;;;;;4991652;28;101699;-79
2023/05/08 02:33:26;;;;;;;152.55;25.98;;;;;;;;;;5026590;28;99073;-78
2023/05/08 02:35:56;;;;;;;100.60;24.95;;;;;;;;;;5012370;28;98611;-78
2023/05/08 02:38:22;;;;;;;102.75;30.90;;;;;;;;;;5009812;28;98498;-79
2023/05/08 02:40:53;;;;;;;95.75;26.15;;;;;;;;;;5008036;28;100034;-78
2023/05/08 02:43:20;;;;;;;105.13;27.25;;;;;;;;;;5005976;28;100901;-79
2023/05/08 02:45:48;;;;;;;99.63;27.85;;;;;;;;;;5005213;28;100489;-78
2023/05/08 02:48:18;;;;;;;98.78;26.65;;;;;;;;;;5004919;28;100054;-79
2023/05/08 02:50:59;;;;;;;88.03;25.92;;;;;;;;;;5008411;28;100050;-79
2023/05/08 02:53:39;;;;;;;177.57;30.27;;;;;;;;;;5003935;28;101730;-79
2023/05/08 02:56:06;;;;;;;161.10;27.42;;;;;;;;;;5005422;28;98987;-78
2023/05/08 02:58:36;;;;;;;184.82;26.73;;;;;;;;;;5010114;28;98833;-79
2023/05/08 03:01:28;;;;;;;184.45;30.10;;;;;;;;;;5006207;28;98888;-80
2023/05/08 03:04:00;;;;;;;127.07;27.95;;;;;;;;;;4987334;28;101854;-79
2023/05/08 03:06:28;;;;;;;211.10;30.42;;;;;;;;;;4988368;28;101864;-79
2023/05/08 03:08:57;;;;;;;99.57;27.60;;;;;;;;;;4987579;28;101739;-79
2023/05/08 03:11:27;;;;;;;104.18;26.85;;;;;;;;;;4987788;28;100888;-79
2023/05/08 03:13:56;;;;;;;111.57;28.95;;;;;;;;;;5005295;28;99300;-79
2023/05/08 03:16:24;;;;;;;87.70;26.95;;;;;;;;;;4996785;28;98861;-79
2023/05/08 03:18:58;;;;;;;131.90;30.13;;;;;;;;;;5000809;28;99661;-78
2023/05/08 03:21:27;;;;;;;77.80;25.23;;;;;;;;;;5005435;28;99874;-78
2023/05/08 03:23:55;;;;;;;47.92;25.88;;;;;;;;;;5006624;28;98848;-77
2023/05/08 03:26:21;;;;;;;82.55;26.00;;;;;;;;;;5006286;28;99080;-79
2023/05/08 03:28:49;;;;;;;98.65;25.50;;;;;;;;;;4988241;28;101622;-79
2023/05/08 03:31:20;;;;;;;111.65;24.88;;;;;;;;;;4983835;28;100429;-79
2023/05/08 03:33:47;;;;;;;120.82;27.73;;;;;;;;;;4984294;28;101247;-79
2023/05/08 03:36:14;;;;;;;116.95;23.38;;;;;;;;;;4984966;28;99794;-79
2023/05/08 03:38:45;;;;;;;109.30;28.30;;;;;;;;;;4968671;28;100116;-79
2023/05/08 03:41:14;;;;;;;42.88;21.75;;;;;;;;;;4987267;28;101824;-79
2023/05/08 03:43:46;;;;;;;27.73;18.48;;;;;;;;;;4986656;28;102056;-78
2023/05/08 03:46:13;;;;;;;20.67;15.88;;;;;;;;;;4987450;28;99664;-78
2023/05/08 03:48:40;;;;;;;17.90;16.40;;;;;;;;;;4984068;28;100944;-79
2023/05/08 03:51:06;;;;;;;18.00;16.23;;;;;;;;;;4985393;28;98939;-78
2023/05/08 03:53:35;;;;;;;15.65;14.27;;;;;;;;;;4988926;28;99551;-78
2023/05/08 03:56:02;;;;;;;15.82;14.63;;;;;;;;;;5004448;28;99951;-78
2023/05/08 03:58:48;;;;;;;14.68;13.48;;;;;;;;;;5003043;28;101270;-79
2023/05/08 04:01:21;;;;;;;15.88;14.68;;;;;;;;;;5003721;28;100986;-77
2023/05/08 04:04:13;;;;;;;15.68;14.52;;;;;;;;;;5008847;28;100522;-78
2023/05/08 04:07:00;;;;;;;15.93;14.68;;;;;;;;;;4993186;28;101952;-78
2023/05/08 04:09:56;;;;;;;15.68;14.32;;;;;;;;;;5007699;28;101337;-78
2023/05/08 04:12:24;;;;;;;15.55;14.02;;;;;;;;;;5024320;28;99188;-78
2023/05/08 04:14:54;;;;;;;15.30;14.15;;;;;;;;;;5007965;28;100144;-79
2023/05/08 04:17:42;;;;;;;15.30;13.73;;;;;;;;;;5007295;28;101665;-79
2023/05/08 04:20:13;;;;;;;14.55;13.25;;;;;;;;;;5007630;28;101541;-78
2023/05/08 04:22:41;;;;;;;15.15;13.50;;;;;;;;;;5023624;28;99761;-78
2023/05/08 04:25:09;;;;;;;14.43;13.07;;;;;;;;;;5007276;28;99976;-79
2023/05/08 04:27:36;;;;;;;13.95;12.85;;;;;;;;;;5014564;28;100969;-78
2023/05/08 04:30:03;;;;;;;15.30;14.10;;;;;;;;;;5013033;28;100904;-78
2023/05/08 04:32:30;;;;;;;16.80;15.38;;;;;;;;;;5013569;28;101057;-79
2023/05/08 04:34:57;;;;;;;19.88;16.25;;;;;;;;;;5015748;28;100171;-79
2023/05/08 04:37:27;;;;;;;15.82;14.35;;;;;;;;;;5013738;28;101648;-79
2023/05/08 04:39:57;;;;;;;14.80;13.27;;;;;;;;;;5010034;28;100071;-78
2023/05/08 04:42:27;;;;;;;15.05;13.77;;;;;;;;;;5010704;28;99344;-79
2023/05/08 04:44:56;;;;;;;15.00;13.60;;;;;;;;;;5009986;28;101271;-78
2023/05/08 04:47:26;;;;;;;13.45;12.13;;;;;;;;;;5009783;28;100952;-79
2023/05/08 04:49:53;;;;;;;13.88;12.70;;;;;;;;;;5014039;28;99202;-77
2023/05/08 04:52:19;;;;;;;15.73;13.15;;;;;;;;;;5009800;28;102067;-79
2023/05/08 04:54:45;;;;;;;17.05;13.25;;;;;;;;;;5024841;28;99141;-78
2023/05/08 04:57:12;;;;;;;13.80;12.55;;;;;;;;;;5001633;28;100247;-77
2023/05/08 04:59:39;;;;;;;14.00;12.50;;;;;;;;;;5031836;28;98769;-78
2023/05/08 05:02:07;;;;;;;14.90;13.65;;;;;;;;;;5031411;28;99008;-79
2023/05/08 05:04:35;;;;;;;14.10;12.80;;;;;;;;;;5014510;28;101304;-80
2023/05/08 05:07:03;;;;;;;15.70;14.20;;;;;;;;;;5013015;28;101332;-78
2023/05/08 05:09:30;;;;;;;16.15;14.45;;;;;;;;;;5014215;28;101044;-78
2023/05/08 05:11:56;;;;;;;21.30;14.80;;;;;;;;;;5035006;28;98727;-78
2023/05/08 05:14:23;;;;;;;17.65;14.40;;;;;;;;;;5012743;28;100364;-78
2023/05/08 05:16:51;;;;;;;15.43;14.02;;;;;;;;;;5009374;28;99979;-79
2023/05/08 05:19:18;;;;;;;16.40;15.00;;;;;;;;;;5011456;28;99890;-77
2023/05/08 05:21:44;;;;;;;17.80;16.20;;;;;;;;;;5009052;28;100127;-77
2023/05/08 05:24:11;;;;;;;18.80;16.92;;;;;;;;;;5011056;28;99289;-78
2023/05/08 05:26:38;;;;;;;18.55;16.85;;;;;;;;;;5011350;28;98825;-78
2023/05/08 05:29:04;;;;;;;19.58;16.80;;;;;;;;;;5015075;28;99329;-79
2023/05/08 05:31:31;;;;;;;18.02;16.42;;;;;;;;;;5016443;28;100106;-78
2023/05/08 05:33:59;;;;;;;19.15;17.45;;;;;;;;;;5013422;28;99742;-79
2023/05/08 05:36:28;;;;;;;18.45;16.55;;;;;;;;;;5009049;28;100016;-79
2023/05/08 05:38:54;;;;;;;19.20;17.40;;;;;;;;;;5009952;28;102036;-78
2023/05/08 05:41:21;;;;;;;18.63;17.10;;;;;;;;;;5021908;28;100172;-79
2023/05/08 05:43:47;;;;;;;18.42;16.58;;;;;;;;;;5007168;28;100036;-79
2023/05/08 05:46:14;;;;;;;18.35;16.55;;;;;;;;;;4995511;28;101737;-79
2023/05/08 05:48:40;;;;;;;18.38;16.50;;;;;;;;;;4993277;28;100238;-78
2023/05/08 05:51:08;;;;;;;18.27;16.58;;;;;;;;;;5007538;28;101269;-78
2023/05/08 05:53:35;;;;;;;18.48;16.88;;;;;;;;;;5002414;28;101685;-78
2023/05/08 05:56:02;;;;;;;18.77;16.90;;;;;;;;;;5002687;28;100157;-76
2023/05/08 05:58:30;;;;;;;17.25;15.65;;;;;;;;;;4987097;28;101734;-76
2023/05/08 06:00:59;;;;;;;18.63;17.02;;;;;;;;;;4983266;28;101127;-80
2023/05/08 06:03:26;;;;;;;19.05;17.25;;;;;;;;;;4968758;28;101676;-79
2023/05/08 06:05:53;;;;;;;20.35;18.35;;;;;;;;;;4988963;28;99383;-80
2023/05/08 06:08:21;;;;;;;19.13;17.38;;;;;;;;;;4981700;28;99392;-80
2023/05/08 06:10:48;;;;;;;18.50;16.70;;;;;;;;;;5000570;28;98977;-80
2023/05/08 06:13:15;;;;;;;19.75;17.95;;;;;;;;;;4982396;28;100128;-81
2023/05/08 06:15:41;;;;;;;20.20;18.30;;;;;;;;;;4991131;28;99129;-79
2023/05/08 06:18:08;;;;;;;19.77;17.98;;;;;;;;;;4986351;28;101955;-81
2023/05/08 06:20:35;;;;;;;10.60;9.70;;;;;;;;;;4996472;28;99286;-80
2023/05/08 06:23:02;;;;;;;18.95;17.23;;;;;;;;;;5001653;28;99439;-81
2023/05/08 06:25:29;;;;;;;18.85;17.02;;;;;;;;;;5005330;28;99030;-81
2023/05/08 06:27:56;;;;;;;22.02;17.40;;;;;;;;;;5002173;28;99632;-80
2023/05/08 06:30:24;;;;;;;18.05;16.45;;;;;;;;;;5005516;28;101662;-83
2023/05/08 06:32:51;;;;;;;19.98;18.05;;;;;;;;;;5006499;28;99818;-81
2023/05/08 06:35:18;;;;;;;21.23;18.60;;;;;;;;;;5001680;28;100812;-81
2023/05/08 06:37:45;;;;;;;19.70;17.92;;;;;;;;;;5007322;28;99225;-80
2023/05/08 06:40:12;;;;;;;20.58;18.73;;;;;;;;;;5000152;28;101299;-82
2023/05/08 06:42:39;;;;;;;21.30;19.35;;;;;;;;;;5002851;28;99316;-81
2023/05/08 06:45:06;;;;;;;19.90;18.15;;;;;;;;;;5002991;28;99217;-81
2023/05/08 06:47:32;;;;;;;19.88;18.17;;;;;;;;;;4987519;28;99576;-80
2023/05/08 06:49:59;;;;;;;20.13;18.13;;;;;;;;;;4994978;28;100790;-81
2023/05/08 06:52:25;;;;;;;18.98;17.13;;;;;;;;;;4985727;28;99911;-81
2023/05/08 06:54:52;;;;;;;17.50;16.10;;;;;;;;;;5004187;28;101052;-81
2023/05/08 06:57:18;;;;;;;18.73;16.25;;;;;;;;;;5005730;28;98821;-83
2023/05/08 06:59:46;;;;;;;18.45;16.80;;;;;;;;;;5006048;28;100014;-81
2023/05/08 07:02:12;;;;;;;17.80;16.02;;;;;;;;;;5005238;28;100637;-82
2023/05/08 07:04:39;;;;;;;18.65;16.90;;;;;;;;;;5005995;28;99112;-82
2023/05/08 07:07:06;;;;;;;17.73;16.23;;;;;;;;;;5001434;28;99826;-81
2023/05/08 07:09:33;;;;;;;17.80;16.05;;;;;;;;;;5000649;28;100480;-81
2023/05/08 07:11:59;;;;;;;17.90;16.08;;;;;;;;;;4986827;28;99132;-82
2023/05/08 07:14:26;;;;;;;18.00;16.23;;;;;;;;;;4997390;28;99703;-82
2023/05/08 07:16:53;;;;;;;17.95;16.48;;;;;;;;;;5002651;28;99224;-81
2023/05/08 07:19:19;;;;;;;19.10;17.40;;;;;;;;;;5002752;28;100145;-82
2023/05/08 07:21:47;;;;;;;18.50;16.80;;;;;;;;;;5002914;28;100078;-82
2023/05/08 07:24:14;;;;;;;20.20;18.10;;;;;;;;;;5003529;28;101283;-82
2023/05/08 07:26:41;;;;;;;18.77;17.17;;;;;;;;;;5003702;28;99486;-80
2023/05/08 07:29:07;;;;;;;20.25;18.10;;;;;;;;;;5002145;28;100202;-81
2023/05/08 07:31:35;;;;;;;19.50;17.58;;;;;;;;;;5004370;28;99055;-81
2023/05/08 07:34:01;;;;;;;21.55;19.45;;;;;;;;;;5005681;28;100348;-81
2023/05/08 07:36:27;;;;;;;20.95;18.95;;;;;;;;;;5005898;28;99234;-81
2023/05/08 07:38:54;;;;;;;20.95;18.73;;;;;;;;;;5003238;28;99545;-80
2023/05/08 07:41:20;;;;;;;21.42;19.52;;;;;;;;;;5006346;28;100548;-79
2023/05/08 07:43:47;;;;;;;20.63;18.73;;;;;;;;;;5005026;28;100000;-80
2023/05/08 07:46:17;;;;;;;20.73;18.67;;;;;;;;;;5003859;28;100618;-81
2023/05/08 07:48:43;;;;;;;23.73;19.38;;;;;;;;;;5003233;28;100289;-82
2023/05/08 07:51:10;;;;;;;20.77;18.98;;;;;;;;;;5005045;28;100185;-82
2023/05/08 07:53:36;;;;;;;21.23;19.13;;;;;;;;;;5009458;28;100870;-81
2023/05/08 07:56:03;;;;;;;22.27;20.23;;;;;;;;;;5024683;28;99029;-81
2023/05/08 07:58:29;;;;;;;22.35;20.00;;;;;;;;;;5024389;28;99260;-82
2023/05/08 08:00:56;;;;;;;23.05;20.40;;;;;;;;;;5026525;28;99431;-83
2023/05/08 08:03:22;;;;;;;25.95;21.80;;;;;;;;;;5028201;28;99117;-79
2023/05/08 08:05:49;;;;;;;23.17;20.83;;;;;;;;;;5020366;28;99759;-81
2023/05/08 08:08:15;;;;;;;22.92;20.63;;;;;;;;;;4987600;28;100282;-81
2023/05/08 08:10:41;;;;;;;24.65;21.92;;;;;;;;;;4987701;28;100746;-82
2023/05/08 08:13:08;;;;;;;22.10;20.13;;;;;;;;;;5005429;28;100259;-81
2023/05/08 08:15:35;;;;;;;22.60;20.60;;;;;;;;;;5004419;28;99058;-82
2023/05/08 08:18:01;;;;;;;22.27;20.40;;;;;;;;;;5005367;28;100346;-82
2023/05/08 08:20:28;;;;;;;23.70;21.23;;;;;;;;;;5005768;28;100751;-82
2023/05/08 08:22:54;;;;;;;23.27;21.05;;;;;;;;;;5006226;28;100293;-80
2023/05/08 08:25:21;;;;;;;24.48;22.08;;;;;;;;;;5001671;28;100275;-82
2023/05/08 08:27:51;;;;;;;25.17;22.77;;;;;;;;;;5001175;28;99542;-83
2023/05/08 08:30:18;;;;;;;24.65;22.25;;;;;;;;;;5003928;28;99358;-82
2023/05/08 08:32:45;;;;;;;24.75;22.35;;;;;;;;;;5003783;28;100965;-81
2023/05/08 08:35:11;;;;;;;24.92;22.38;;;;;;;;;;5004637;28;99221;-81
2023/05/08 08:37:38;;;;;;;23.85;21.58;;;;;;;;;;5006146;28;99982;-83
2023/05/08 08:40:05;;;;;;;25.85;23.50;;;;;;;;;;5006142;28;100433;-82
2023/05/08 08:42:32;;;;;;;25.38;22.77;;;;;;;;;;5005773;28;99093;-82
2023/05/08 08:44:59;;;;;;;24.08;22.02;;;;;;;;;;5006337;28;100185;-82
2023/05/08 08:47:27;;;;;;;24.05;21.67;;;;;;;;;;5008307;28;100244;-82
2023/05/08 08:49:54;;;;;;;24.63;22.33;;;;;;;;;;5004707;28;98996;-81
2023/05/08 08:52:30;;;;;;;24.20;21.95;;;;;;;;;;5003752;28;99359;-81
2023/05/08 08:54:58;;;;;;;24.20;21.75;;;;;;;;;;5011219;28;99104;-81
2023/05/08 08:57:26;;;;;;;25.17;22.88;;;;;;;;;;5005103;28;100788;-83
2023/05/08 08:59:54;;;;;;;23.50;20.30;;;;;;;;;;5004787;28;100317;-83
2023/05/08 09:02:21;;;;;;;23.63;21.27;;;;;;;;;;5004396;28;100424;-81
2023/05/08 09:04:49;;;;;;;22.50;20.27;;;;;;;;;;5004667;28;98945;-81
2023/05/08 09:07:16;;;;;;;22.98;20.95;;;;;;;;;;5006555;28;99503;-82
2023/05/08 09:09:46;;;;;;;24.02;20.95;;;;;;;;;;5008872;28;100139;-82
2023/05/08 09:12:13;;;;;;;23.05;20.92;;;;;;;;;;5009587;28;100160;-82
2023/05/08 09:14:41;;;;;;;24.50;19.67;;;;;;;;;;5021098;28;99963;-82
2023/05/08 09:17:09;;;;;;;21.27;19.35;;;;;;;;;;4999635;28;99750;-82
2023/05/08 09:19:35;;;;;;;20.80;18.70;;;;;;;;;;5004924;28;98583;-81
2023/05/08 09:22:02;;;;;;;20.92;18.83;;;;;;;;;;5007911;28;100375;-81
2023/05/08 09:24:48;;;;;;;21.52;19.52;;;;;;;;;;5009644;28;100674;-81
2023/05/08 09:27:21;;;;;;;20.50;18.70;;;;;;;;;;5000092;28;100086;-81
2023/05/08 09:30:03;;;;;;;21.05;18.85;;;;;;;;;;5012590;28;99355;-81
2023/05/08 09:32:30;;;;;;;19.95;18.05;;;;;;;;;;5013068;28;100300;-80
2023/05/08 09:34:57;;;;;;;20.77;18.80;;;;;;;;;;5016423;28;99636;-80
2023/05/08 09:37:24;;;;;;;19.65;17.75;;;;;;;;;;5011970;28;98612;-80
2023/05/08 09:39:51;;;;;;;20.27;18.25;;;;;;;;;;5017764;28;98221;-80
2023/05/08 09:42:17;;;;;;;20.02;18.25;;;;;;;;;;5008130;28;100989;-79
2023/05/08 09:44:46;;;;;;;19.98;17.98;;;;;;;;;;4988230;28;99452;-80
2023/05/08 09:47:14;;;;;;;20.00;18.30;;;;;;;;;;5007047;28;100348;-79
2023/05/08 09:50:00;;;;;;;18.48;16.65;;;;;;;;;;5018021;28;100537;-81
2023/05/08 09:52:27;;;;;;;21.65;18.42;;;;;;;;;;5031403;28;100232;-81
2023/05/08 09:55:00;;;;;;;20.27;18.40;;;;;;;;;;5026796;27;99084;-81
2023/05/08 09:57:29;;;;;;;21.35;19.20;;;;;;;;;;5007735;28;99899;-81
2023/05/08 10:00:08;;;;;;;21.23;19.20;;;;;;;;;;5009325;28;99911;-83
2023/05/08 10:02:37;;;;;;;21.05;19.05;;;;;;;;;;4989969;28;99965;-81
2023/05/08 10:05:06;;;;;;;20.80;18.65;;;;;;;;;;5008910;28;100003;-82
2023/05/08 10:07:34;;;;;;;22.90;20.80;;;;;;;;;;5008094;28;99043;-81
2023/05/08 10:10:05;;;;;;;21.77;19.63;;;;;;;;;;5007970;28;100071;-81
2023/05/08 10:12:32;;;;;;;24.88;22.42;;;;;;;;;;5008542;28;100284;-82
2023/05/08 10:14:59;;;;;;;24.67;21.23;;;;;;;;;;5021048;28;100455;-82
2023/05/08 10:17:47;;;;;;;24.15;21.55;;;;;;;;;;5006478;28;99377;-81
2023/05/08 10:20:14;;;;;;;24.52;21.83;;;;;;;;;;5005236;28;100800;-81
2023/05/08 10:22:42;;;;;;;23.63;21.08;;;;;;;;;;5006028;28;99854;-81
2023/05/08 10:25:15;;;;;;;24.15;21.77;;;;;;;;;;5002526;28;99932;-83
2023/05/08 10:27:51;;;;;;;26.75;23.95;;;;;;;;;;5000645;28;99287;-81
2023/05/08 10:30:22;;;;;;;28.77;25.80;;;;;;;;;;5007360;28;100106;-80
2023/05/08 10:32:50;;;;;;;29.77;26.60;;;;;;;;;;5011750;28;100636;-81
2023/05/08 10:35:17;;;;;;;27.92;25.17;;;;;;;;;;5014748;28;99765;-79
2023/05/08 10:37:44;;;;;;;28.58;25.63;;;;;;;;;;5011548;28;99286;-81
2023/05/08 10:40:17;;;;;;;34.38;27.70;;;;;;;;;;4988900;28;100219;-81
2023/05/08 10:42:45;;;;;;;33.40;29.65;;;;;;;;;;5007407;28;100356;-80
2023/05/08 10:45:12;;;;;;;35.13;28.33;;;;;;;;;;5004993;28;100630;-81
2023/05/08 10:47:45;;;;;;;38.90;31.30;;;;;;;;;;5002233;28;100241;-81
2023/05/08 10:50:11;;;;;;;45.58;33.28;;;;;;;;;;5007722;28;99910;-82
2023/05/08 10:52:42;;;;;;;40.05;33.47;;;;;;;;;;5002891;28;101049;-80
2023/05/08 10:55:16;;;;;;;38.25;32.70;;;;;;;;;;5007252;28;98704;-82
2023/05/08 10:58:00;;;;;;;37.50;32.85;;;;;;;;;;5025006;28;100097;-81
2023/05/08 11:00:30;;;;;;;39.70;32.10;;;;;;;;;;5030298;28;100223;-82
2023/05/08 11:03:04;;;;;;;37.17;33.08;;;;;;;;;;5026370;28;99323;-79
2023/05/08 11:05:44;;;;;;;49.40;38.42;;;;;;;;;;5037224;27;100490;-76
2023/05/08 11:08:13;;;;;;;51.35;39.92;;;;;;;;;;5044717;27;99434;-78
2023/05/08 11:10:40;;;;;;;48.58;38.25;;;;;;;;;;5030601;27;100087;-79
2023/05/08 11:13:07;;;;;;;49.60;41.15;;;;;;;;;;5025761;28;100057;-79
2023/05/08 11:15:34;;;;;;;46.22;37.85;;;;;;;;;;5023375;27;102048;-78
2023/05/08 11:18:02;;;;;;;49.40;38.05;;;;;;;;;;5026434;28;101243;-79
2023/05/08 11:20:42;;;;;;;50.78;37.53;;;;;;;;;;5024973;28;99318;-80
2023/05/08 11:23:20;;;;;;;43.50;36.35;;;;;;;;;;5023753;28;100572;-80
2023/05/08 11:25:46;;;;;;;47.78;37.40;;;;;;;;;;5026919;28;99769;-79
2023/05/08 11:28:15;;;;;;;45.35;38.63;;;;;;;;;;5023596;28;101313;-79
2023/05/08 11:30:43;;;;;;;52.58;40.75;;;;;;;;;;5028384;28;100461;-80
2023/05/08 11:33:10;;;;;;;54.42;44.35;;;;;;;;;;5018152;27;99653;-80
2023/05/08 11:35:49;;;;;;;55.42;46.25;;;;;;;;;;5013291;27;100169;-79
2023/05/08 11:38:19;;;;;;;50.55;41.80;;;;;;;;;;5010505;28;99877;-81
2023/05/08 11:40:46;;;;;;;63.00;48.85;;;;;;;;;;5016687;28;99928;-82
2023/05/08 11:43:23;;;;;;;67.82;49.88;;;;;;;;;;5020001;28;100284;-80
2023/05/08 11:45:50;;;;;;;58.15;47.03;;;;;;;;;;5024935;28;99116;-81
2023/05/08 11:48:18;;;;;;;58.83;47.75;;;;;;;;;;5005513;28;100242;-82
2023/05/08 11:50:45;;;;;;;62.00;48.85;;;;;;;;;;5013506;28;100295;-81
2023/05/08 11:53:12;;;;;;;61.78;50.50;;;;;;;;;;5024842;28;100137;-80
2023/05/08 11:55:38;;;;;;;59.75;48.80;;;;;;;;;;5023902;28;100581;-80
2023/05/08 11:58:11;;;;;;;61.38;47.92;;;;;;;;;;5025182;28;100129;-80
2023/05/08 12:00:43;;;;;;;57.08;45.30;;;;;;;;;;5025660;28;98897;-81
2023/05/08 12:03:14;;;;;;;63.55;46.03;;;;;;;;;;5025515;28;100506;-80
2023/05/08 12:05:40;;;;;;;61.75;47.30;;;;;;;;;;5029655;28;100010;-80
2023/05/08 12:08:07;;;;;;;64.10;47.63;;;;;;;;;;5026176;28;100412;-80
2023/05/08 12:10:53;;;;;;;57.60;46.90;;;;;;;;;;5024606;28;99035;-80
2023/05/08 12:13:21;;;;;;;63.20;48.38;;;;;;;;;;5025559;28;98662;-80
2023/05/08 12:15:49;;;;;;;59.30;47.17;;;;;;;;;;5024318;28;100432;-79
2023/05/08 12:18:16;;;;;;;59.55;46.42;;;;;;;;;;5015414;28;100100;-80
2023/05/08 12:20:43;;;;;;;60.53;44.97;;;;;;;;;;5011247;28;100657;-81
2023/05/08 12:23:09;;;;;;;48.47;42.15;;;;;;;;;;5025844;28;100489;-81
2023/05/08 12:25:36;;;;;;;55.00;44.30;;;;;;;;;;5026306;28;99953;-80
2023/05/08 12:28:02;;;;;;;49.90;39.90;;;;;;;;;;5028471;28;99099;-81
2023/05/08 12:30:29;;;;;;;43.92;37.42;;;;;;;;;;5024082;28;98886;-81
2023/05/08 12:32:55;;;;;;;43.00;34.05;;;;;;;;;;5025388;28;100209;-81
2023/05/08 12:35:23;;;;;;;42.30;35.10;;;;;;;;;;5025737;28;99571;-81
2023/05/08 12:37:50;;;;;;;42.30;36.65;;;;;;;;;;5010817;28;100127;-81
2023/05/08 12:40:25;;;;;;;43.38;36.38;;;;;;;;;;5004647;28;99232;-82
2023/05/08 12:42:53;;;;;;;42.13;36.72;;;;;;;;;;4995147;28;100988;-82
2023/05/08 12:45:24;;;;;;;46.90;35.40;;;;;;;;;;5026072;27;100060;-82
2023/05/08 12:47:51;;;;;;;42.25;34.28;;;;;;;;;;5028677;28;100027;-82
2023/05/08 12:50:21;;;;;;;43.58;35.45;;;;;;;;;;5033026;28;100336;-82
2023/05/08 12:52:48;;;;;;;37.58;32.35;;;;;;;;;;5028924;28;99226;-82
2023/05/08 12:55:27;;;;;;;40.65;31.88;;;;;;;;;;5007659;28;99311;-82
2023/05/08 12:58:13;;;;;;;34.80;30.52;;;;;;;;;;5008662;28;100092;-83
2023/05/08 13:00:42;;;;;;;35.80;31.55;;;;;;;;;;5009948;28;100207;-82
2023/05/08 13:03:12;;;;;;;38.55;30.23;;;;;;;;;;5010024;28;100452;-83
2023/05/08 13:05:43;;;;;;;39.92;32.33;;;;;;;;;;5007985;28;99087;-82
2023/05/08 13:08:09;;;;;;;33.92;30.42;;;;;;;;;;5008974;28;99471;-83
2023/05/08 13:10:44;;;;;;;35.83;29.67;;;;;;;;;;5008999;28;99471;-82
2023/05/08 13:13:11;;;;;;;34.80;30.83;;;;;;;;;;5011191;28;99318;-82
2023/05/08 13:15:37;;;;;;;35.67;29.38;;;;;;;;;;5008568;28;99752;-81
2023/05/08 13:18:07;;;;;;;33.70;30.05;;;;;;;;;;5009956;28;99977;-82
2023/05/08 13:20:33;;;;;;;34.95;29.30;;;;;;;;;;4989387;28;99466;-82
2023/05/08 13:23:03;;;;;;;34.75;31.08;;;;;;;;;;5000261;28;99538;-82
2023/05/08 13:25:32;;;;;;;34.65;30.90;;;;;;;;;;5030253;28;98272;-82
2023/05/08 13:28:00;;;;;;;35.63;30.08;;;;;;;;;;5020478;28;99424;-82
2023/05/08 13:30:27;;;;;;;34.13;30.55;;;;;;;;;;5008621;28;99365;-82
2023/05/08 13:32:58;;;;;;;35.08;30.60;;;;;;;;;;5008398;28;100277;-82
2023/05/08 13:35:27;;;;;;;34.65;28.88;;;;;;;;;;5011407;28;100580;-81
2023/05/08 13:37:54;;;;;;;33.50;29.80;;;;;;;;;;5008254;28;98765;-81
2023/05/08 13:40:24;;;;;;;32.58;28.75;;;;;;;;;;5007763;28;99055;-82
2023/05/08 13:43:05;;;;;;;36.53;28.88;;;;;;;;;;5006705;28;99354;-83
2023/05/08 13:45:31;;;;;;;31.33;28.00;;;;;;;;;;5008137;28;99157;-82
2023/05/08 13:48:00;;;;;;;35.50;29.40;;;;;;;;;;5007702;28;99932;-82
2023/05/08 13:50:27;;;;;;;33.28;28.98;;;;;;;;;;5024329;28;99677;-82
2023/05/08 13:52:55;;;;;;;32.78;28.02;;;;;;;;;;5008068;28;100042;-83
2023/05/08 13:55:22;;;;;;;32.38;28.50;;;;;;;;;;5011350;28;99126;-84
2023/05/08 13:57:49;;;;;;;31.33;28.02;;;;;;;;;;5006738;28;100095;-81
2023/05/08 14:00:16;;;;;;;32.35;28.95;;;;;;;;;;5008024;28;100927;-82
2023/05/08 14:02:46;;;;;;;30.33;26.42;;;;;;;;;;5007328;28;101569;-78
2023/05/08 14:05:17;;;;;;;32.30;29.00;;;;;;;;;;5006653;28;99080;-80
2023/05/08 14:07:47;;;;;;;33.22;29.55;;;;;;;;;;5002031;28;99980;-82
2023/05/08 14:10:15;;;;;;;39.22;29.25;;;;;;;;;;5003103;28;100267;-84
2023/05/08 14:12:43;;;;;;;37.10;28.00;;;;;;;;;;4986907;28;100417;-81
2023/05/08 14:15:10;;;;;;;31.90;27.23;;;;;;;;;;5012721;28;99758;-81
2023/05/08 14:17:37;;;;;;;36.78;27.88;;;;;;;;;;5000061;28;100212;-82
2023/05/08 14:20:04;;;;;;;33.55;28.85;;;;;;;;;;5008578;28;99132;-81